sensor_id;sensor_type;location;lat;lon;timestamp;pressure;altitude;pressure_sealevel;temperature;humidity
6094;BME280;19964;42.060;24.700;2023-03-16T00:00:06;96398.00;;;9.10;67.56
6094;BME280;19964;42.060;24.700;2023-03-16T00:02:38;96420.22;;;9.32;67.01
6094;BME280;19964;42.060;24.700;2023-03-16T00:05:05;96413.91;;;9.23;67.44
6094;BME280;19964;42.060;24.700;2023-03-16T00:07:32;96427.47;;;9.35;67.39
6094;BME280;19964;42.060;24.700;2023-03-16T00:09:59;96425.25;;;9.22;67.79
6094;BME280;19964;42.060;24.700;2023-03-16T00:12:29;96426.56;;;9.25;67.93
6094;BME280;19964;42.060;24.700;2023-03-16T00:15:02;96428.84;;;9.21;68.72
6094;BME280;19964;42.060;24.700;2023-03-16T00:17:29;96436.47;;;9.33;68.41
6094;BME280;19964;42.060;24.700;2023-03-16T00:19:56;96420.13;;;9.27;68.74
6094;BME280;19964;42.060;24.700;2023-03-16T00:22:25;96430.84;;;9.36;68.85
6094;BME280;19964;42.060;24.700;2023-03-16T00:24:53;96419.66;;;9.30;68.87
6094;BME280;19964;42.060;24.700;2023-03-16T00:27:21;96433.41;;;9.36;69.17
6094;BME280;19964;42.060;24.700;2023-03-16T00:29:51;96434.50;;;9.40;69.37
6094;BME280;19964;42.060;24.700;2023-03-16T00:32:22;96428.53;;;9.39;69.42
6094;BME280;19964;42.060;24.700;2023-03-16T00:34:49;96378.56;;;9.07;69.58
6094;BME280;19964;42.060;24.700;2023-03-16T00:37:17;96422.41;;;9.45;69.89
6094;BME280;19964;42.060;24.700;2023-03-16T00:39:48;96431.94;;;9.45;70.02
6094;BME280;19964;42.060;24.700;2023-03-16T00:42:16;96432.50;;;9.47;70.16
6094;BME280;19964;42.060;24.700;2023-03-16T00:44:44;96427.97;;;9.32;71.14
6094;BME280;19964;42.060;24.700;2023-03-16T00:47:12;96436.97;;;9.30;71.13
6094;BME280;19964;42.060;24.700;2023-03-16T00:49:40;96434.38;;;9.30;71.42
6094;BME280;19964;42.060;24.700;2023-03-16T00:52:09;96449.50;;;9.43;71.15
6094;BME280;19964;42.060;24.700;2023-03-16T00:54:39;96433.34;;;9.31;71.41
6094;BME280;19964;42.060;24.700;2023-03-16T00:57:09;96443.97;;;9.34;71.71
6094;BME280;19964;42.060;24.700;2023-03-16T00:59:36;96452.06;;;9.38;71.92
6094;BME280;19964;42.060;24.700;2023-03-16T01:02:04;96457.75;;;9.40;72.28
6094;BME280;19964;42.060;24.700;2023-03-16T01:04:33;96442.31;;;9.23;72.60
6094;BME280;19964;42.060;24.700;2023-03-16T01:07:00;96461.03;;;9.30;73.38
6094;BME280;19964;42.060;24.700;2023-03-16T01:09:27;96458.13;;;9.27;73.20
6094;BME280;19964;42.060;24.700;2023-03-16T01:11:54;96459.16;;;9.26;73.40
6094;BME280;19964;42.060;24.700;2023-03-16T01:14:21;96453.72;;;9.27;73.28
6094;BME280;19964;42.060;24.700;2023-03-16T01:16:48;96453.72;;;9.27;73.28
6094;BME280;19964;42.060;24.700;2023-03-16T01:19:17;96411.63;;;9.05;73.23
6094;BME280;19964;42.060;24.700;2023-03-16T01:21:45;96464.16;;;9.32;73.80
6094;BME280;19964;42.060;24.700;2023-03-16T01:24:12;96469.09;;;9.39;73.69
6094;BME280;19964;42.060;24.700;2023-03-16T01:26:39;96462.03;;;9.29;74.23
6094;BME280;19964;42.060;24.700;2023-03-16T01:29:06;96421.78;;;8.90;74.75
6094;BME280;19964;42.060;24.700;2023-03-16T01:31:33;96461.56;;;9.11;75.04
6094;BME280;19964;42.060;24.700;2023-03-16T01:34:00;96476.53;;;9.30;75.43
6094;BME280;19964;42.060;24.700;2023-03-16T01:36:29;96475.66;;;9.25;75.68
6094;BME280;19964;42.060;24.700;2023-03-16T01:38:58;96485.81;;;9.31;75.88
6094;BME280;19964;42.060;24.700;2023-03-16T01:41:25;96467.16;;;9.24;76.00
6094;BME280;19964;42.060;24.700;2023-03-16T01:43:52;96474.41;;;9.06;76.96
6094;BME280;19964;42.060;24.700;2023-03-16T01:46:24;96465.16;;;9.10;76.87
6094;BME280;19964;42.060;24.700;2023-03-16T01:48:55;96477.47;;;9.03;77.41
6094;BME280;19964;42.060;24.700;2023-03-16T01:51:28;96465.50;;;8.96;77.88
6094;BME280;19964;42.060;24.700;2023-03-16T01:54:01;96480.31;;;9.01;77.74
6094;BME280;19964;42.060;24.700;2023-03-16T01:56:32;96475.06;;;8.96;77.94
6094;BME280;19964;42.060;24.700;2023-03-16T01:59:03;96479.75;;;8.77;78.34
6094;BME280;19964;42.060;24.700;2023-03-16T02:01:32;96472.03;;;8.82;78.74
6094;BME280;19964;42.060;24.700;2023-03-16T02:04:06;96471.44;;;8.75;78.92
6094;BME280;19964;42.060;24.700;2023-03-16T02:06:34;96469.06;;;8.74;79.05
6094;BME280;19964;42.060;24.700;2023-03-16T02:09:04;96486.84;;;8.70;79.37
6094;BME280;19964;42.060;24.700;2023-03-16T02:11:32;96482.31;;;8.61;78.67
6094;BME280;19964;42.060;24.700;2023-03-16T02:14:05;96491.56;;;8.57;78.62
6094;BME280;19964;42.060;24.700;2023-03-16T02:16:33;96498.75;;;8.55;78.49
6094;BME280;19964;42.060;24.700;2023-03-16T02:19:00;96503.63;;;8.51;78.58
6094;BME280;19964;42.060;24.700;2023-03-16T02:21:31;96491.66;;;8.45;78.26
6094;BME280;19964;42.060;24.700;2023-03-16T02:24:00;96453.78;;;8.18;77.85
6094;BME280;19964;42.060;24.700;2023-03-16T02:26:33;96506.59;;;8.43;77.21
6094;BME280;19964;42.060;24.700;2023-03-16T02:29:13;96518.22;;;8.29;77.90
6094;BME280;19964;42.060;24.700;2023-03-16T02:31:45;96501.88;;;8.07;77.62
6094;BME280;19964;42.060;24.700;2023-03-16T02:34:13;96521.72;;;8.23;77.07
6094;BME280;19964;42.060;24.700;2023-03-16T02:36:42;96525.31;;;8.22;76.97
6094;BME280;19964;42.060;24.700;2023-03-16T02:39:11;96525.00;;;8.19;77.10
6094;BME280;19964;42.060;24.700;2023-03-16T02:41:38;96498.25;;;7.91;76.37
6094;BME280;19964;42.060;24.700;2023-03-16T02:44:09;96517.03;;;8.03;76.53
6094;BME280;19964;42.060;24.700;2023-03-16T02:46:41;96531.88;;;8.13;76.58
6094;BME280;19964;42.060;24.700;2023-03-16T02:49:13;96531.47;;;8.04;76.48
6094;BME280;19964;42.060;24.700;2023-03-16T02:51:43;96518.09;;;7.91;76.33
6094;BME280;19964;42.060;24.700;2023-03-16T02:54:11;96523.19;;;8.02;76.46
6094;BME280;19964;42.060;24.700;2023-03-16T02:56:38;96532.16;;;8.00;75.97
6094;BME280;19964;42.060;24.700;2023-03-16T02:59:04;96546.63;;;8.01;75.85
6094;BME280;19964;42.060;24.700;2023-03-16T03:01:31;96532.44;;;7.87;75.95
6094;BME280;19964;42.060;24.700;2023-03-16T03:03:59;96546.69;;;7.89;75.23
6094;BME280;19964;42.060;24.700;2023-03-16T03:06:27;96549.72;;;7.86;75.36
6094;BME280;19964;42.060;24.700;2023-03-16T03:08:55;96559.66;;;7.94;74.76
6094;BME280;19964;42.060;24.700;2023-03-16T03:11:22;96555.19;;;7.90;74.75
6094;BME280;19964;42.060;24.700;2023-03-16T03:13:48;96564.19;;;7.87;75.12
6094;BME280;19964;42.060;24.700;2023-03-16T03:16:16;96574.88;;;7.96;74.34
6094;BME280;19964;42.060;24.700;2023-03-16T03:18:43;96580.56;;;7.81;74.39
6094;BME280;19964;42.060;24.700;2023-03-16T03:21:09;96587.81;;;7.84;74.57
6094;BME280;19964;42.060;24.700;2023-03-16T03:23:38;96589.06;;;7.93;74.28
6094;BME280;19964;42.060;24.700;2023-03-16T03:26:05;96585.06;;;7.74;74.13
6094;BME280;19964;42.060;24.700;2023-03-16T03:28:32;96593.72;;;7.68;74.22
6094;BME280;19964;42.060;24.700;2023-03-16T03:30:59;96581.94;;;7.72;73.93
6094;BME280;19964;42.060;24.700;2023-03-16T03:33:27;96593.16;;;7.66;74.10
6094;BME280;19964;42.060;24.700;2023-03-16T03:35:55;96584.31;;;7.62;74.08
6094;BME280;19964;42.060;24.700;2023-03-16T03:38:22;96601.31;;;7.75;73.99
6094;BME280;19964;42.060;24.700;2023-03-16T03:40:51;96601.88;;;7.77;73.78
6094;BME280;19964;42.060;24.700;2023-03-16T03:43:18;96601.03;;;7.60;73.75
6094;BME280;19964;42.060;24.700;2023-03-16T03:45:46;96607.53;;;7.51;74.37
6094;BME280;19964;42.060;24.700;2023-03-16T03:48:12;96616.19;;;7.45;74.46
6094;BME280;19964;42.060;24.700;2023-03-16T03:50:39;96605.00;;;7.39;74.62
6094;BME280;19964;42.060;24.700;2023-03-16T03:53:06;96614.03;;;7.42;74.66
6094;BME280;19964;42.060;24.700;2023-03-16T03:55:33;96612.16;;;7.37;74.73
6094;BME280;19964;42.060;24.700;2023-03-16T03:58:01;96619.88;;;7.37;74.81
6094;BME280;19964;42.060;24.700;2023-03-16T04:00:28;96615.50;;;7.26;75.06
6094;BME280;19964;42.060;24.700;2023-03-16T04:02:55;96620.56;;;7.33;75.28
6094;BME280;19964;42.060;24.700;2023-03-16T04:05:22;96610.03;;;7.34;74.79
6094;BME280;19964;42.060;24.700;2023-03-16T04:07:52;96607.13;;;7.19;75.06
6094;BME280;19964;42.060;24.700;2023-03-16T04:10:22;96616.75;;;7.24;75.40
6094;BME280;19964;42.060;24.700;2023-03-16T04:12:49;96624.25;;;7.25;75.52
6094;BME280;19964;42.060;24.700;2023-03-16T04:15:18;96603.44;;;7.15;74.89
6094;BME280;19964;42.060;24.700;2023-03-16T04:17:47;96615.66;;;7.19;74.91
6094;BME280;19964;42.060;24.700;2023-03-16T04:20:15;96615.84;;;7.06;75.10
6094;BME280;19964;42.060;24.700;2023-03-16T04:22:44;96616.19;;;7.10;75.38
6094;BME280;19964;42.060;24.700;2023-03-16T04:25:12;96618.00;;;6.98;75.32
6094;BME280;19964;42.060;24.700;2023-03-16T04:27:40;96623.69;;;7.00;75.92
6094;BME280;19964;42.060;24.700;2023-03-16T04:30:09;96618.09;;;6.91;75.51
6094;BME280;19964;42.060;24.700;2023-03-16T04:32:38;96631.19;;;6.90;75.93
6094;BME280;19964;42.060;24.700;2023-03-16T05:10:36;96707.72;;;6.94;74.11
6094;BME280;19964;42.060;24.700;2023-03-16T05:13:03;96718.00;;;6.83;74.27
6094;BME280;19964;42.060;24.700;2023-03-16T05:15:30;96711.69;;;6.67;74.77
6094;BME280;19964;42.060;24.700;2023-03-16T05:17:57;96727.63;;;6.76;74.31
6094;BME280;19964;42.060;24.700;2023-03-16T05:20:24;96717.97;;;6.71;74.18
6094;BME280;19964;42.060;24.700;2023-03-16T05:22:51;96728.50;;;6.70;74.08
6094;BME280;19964;42.060;24.700;2023-03-16T05:25:19;96732.09;;;6.69;73.97
6094;BME280;19964;42.060;24.700;2023-03-16T05:27:49;96735.34;;;6.76;73.40
6094;BME280;19964;42.060;24.700;2023-03-16T05:30:17;96735.69;;;6.79;73.24
6094;BME280;19964;42.060;24.700;2023-03-16T05:32:44;96733.88;;;6.68;73.30
6094;BME280;19964;42.060;24.700;2023-03-16T05:35:12;96745.06;;;6.74;73.20
6094;BME280;19964;42.060;24.700;2023-03-16T05:37:39;96743.66;;;6.60;73.01
6094;BME280;19964;42.060;24.700;2023-03-16T05:40:12;96754.97;;;6.59;73.05
6094;BME280;19964;42.060;24.700;2023-03-16T05:42:42;96752.25;;;6.83;75.41
6094;BME280;19964;42.060;24.700;2023-03-16T05:45:11;96757.06;;;8.02;70.19
6094;BME280;19964;42.060;24.700;2023-03-16T05:47:39;96767.72;;;7.36;70.06
6094;BME280;19964;42.060;24.700;2023-03-16T05:50:08;96748.28;;;6.99;70.74
6094;BME280;19964;42.060;24.700;2023-03-16T05:52:36;96769.28;;;6.84;71.12
6094;BME280;19964;42.060;24.700;2023-03-16T05:55:04;96767.03;;;6.76;71.60
6094;BME280;19964;42.060;24.700;2023-03-16T05:57:31;96768.88;;;6.69;71.06
6094;BME280;19964;42.060;24.700;2023-03-16T05:59:58;96774.06;;;6.81;71.16
6094;BME280;19964;42.060;24.700;2023-03-16T06:02:27;96777.63;;;6.68;70.63
6094;BME280;19964;42.060;24.700;2023-03-16T06:04:55;96776.47;;;6.64;70.82
6094;BME280;19964;42.060;24.700;2023-03-16T06:07:23;96771.44;;;6.69;71.25
6094;BME280;19964;42.060;24.700;2023-03-16T06:09:50;96717.31;;;6.46;70.08
6094;BME280;19964;42.060;24.700;2023-03-16T06:12:17;96790.81;;;6.72;70.21
6094;BME280;19964;42.060;24.700;2023-03-16T06:14:44;96788.94;;;6.79;70.23
6094;BME280;19964;42.060;24.700;2023-03-16T06:17:11;96802.13;;;6.71;70.15
6094;BME280;19964;42.060;24.700;2023-03-16T06:19:39;96805.06;;;6.56;70.42
6094;BME280;19964;42.060;24.700;2023-03-16T06:22:06;96810.44;;;6.73;70.13
6094;BME280;19964;42.060;24.700;2023-03-16T06:24:33;96811.06;;;6.68;70.02
6094;BME280;19964;42.060;24.700;2023-03-16T06:27:00;96804.84;;;6.58;70.12
6094;BME280;19964;42.060;24.700;2023-03-16T06:29:26;96808.44;;;6.57;70.29
6094;BME280;19964;42.060;24.700;2023-03-16T06:31:54;96814.63;;;6.67;69.69
6094;BME280;19964;42.060;24.700;2023-03-16T06:34:21;96813.19;;;6.71;69.73
6094;BME280;19964;42.060;24.700;2023-03-16T06:36:49;96806.44;;;6.59;69.86
6094;BME280;19964;42.060;24.700;2023-03-16T06:39:16;96818.28;;;6.78;69.44
6094;BME280;19964;42.060;24.700;2023-03-16T06:41:46;96822.91;;;6.69;69.13
6094;BME280;19964;42.060;24.700;2023-03-16T06:44:12;96828.00;;;6.58;69.12
6094;BME280;19964;42.060;24.700;2023-03-16T06:46:39;96830.50;;;6.64;68.88
6094;BME280;19964;42.060;24.700;2023-03-16T06:49:06;96830.44;;;6.71;68.94
6094;BME280;19964;42.060;24.700;2023-03-16T06:51:33;96827.50;;;6.67;69.48
6094;BME280;19964;42.060;24.700;2023-03-16T06:54:01;96821.59;;;6.67;68.88
6094;BME280;19964;42.060;24.700;2023-03-16T06:56:28;96844.00;;;6.78;68.47
6094;BME280;19964;42.060;24.700;2023-03-16T06:58:56;96827.59;;;6.61;68.55
6094;BME280;19964;42.060;24.700;2023-03-16T07:01:23;96855.97;;;6.72;68.39
6094;BME280;19964;42.060;24.700;2023-03-16T07:03:50;96853.16;;;6.74;68.24
6094;BME280;19964;42.060;24.700;2023-03-16T07:06:17;96850.72;;;6.79;68.18
6094;BME280;19964;42.060;24.700;2023-03-16T07:08:43;96854.53;;;6.76;68.39
6094;BME280;19964;42.060;24.700;2023-03-16T07:11:12;96860.81;;;6.80;68.47
6094;BME280;19964;42.060;24.700;2023-03-16T07:13:39;96868.25;;;6.88;68.38
6094;BME280;19964;42.060;24.700;2023-03-16T07:16:06;96872.03;;;6.86;67.76
6094;BME280;19964;42.060;24.700;2023-03-16T07:18:33;96785.34;;;6.32;67.49
6094;BME280;19964;42.060;24.700;2023-03-16T07:21:02;96871.28;;;6.97;67.65
6094;BME280;19964;42.060;24.700;2023-03-16T07:23:29;96862.00;;;6.96;67.16
6094;BME280;19964;42.060;24.700;2023-03-16T07:25:56;96779.78;;;6.53;67.29
6094;BME280;19964;42.060;24.700;2023-03-16T07:28:24;96867.28;;;7.01;66.84
6094;BME280;19964;42.060;24.700;2023-03-16T07:30:52;96863.34;;;6.98;66.67
6094;BME280;19964;42.060;24.700;2023-03-16T07:33:19;96863.22;;;6.93;66.96
6094;BME280;19964;42.060;24.700;2023-03-16T07:35:45;96862.00;;;6.96;66.14
6094;BME280;19964;42.060;24.700;2023-03-16T07:38:12;96859.72;;;7.06;66.25
6094;BME280;19964;42.060;24.700;2023-03-16T07:40:39;96875.31;;;6.93;66.32
6094;BME280;19964;42.060;24.700;2023-03-16T07:43:06;96873.78;;;7.03;66.10
6094;BME280;19964;42.060;24.700;2023-03-16T07:45:34;96878.16;;;7.03;66.48
6094;BME280;19964;42.060;24.700;2023-03-16T07:48:01;96869.09;;;7.12;66.02
6094;BME280;19964;42.060;24.700;2023-03-16T07:50:28;96872.53;;;7.24;65.67
6094;BME280;19964;42.060;24.700;2023-03-16T07:52:55;96878.34;;;7.19;65.46
6094;BME280;19964;42.060;24.700;2023-03-16T07:55:21;96874.34;;;7.24;65.41
6094;BME280;19964;42.060;24.700;2023-03-16T07:57:49;96884.75;;;7.29;65.34
6094;BME280;19964;42.060;24.700;2023-03-16T08:00:16;96888.72;;;7.43;65.54
6094;BME280;19964;42.060;24.700;2023-03-16T08:02:49;96889.00;;;7.53;64.50
6094;BME280;19964;42.060;24.700;2023-03-16T08:05:18;96889.66;;;7.60;64.50
6094;BME280;19964;42.060;24.700;2023-03-16T08:07:45;96895.94;;;7.64;64.92
6094;BME280;19964;42.060;24.700;2023-03-16T08:10:14;96889.00;;;7.64;64.50
6094;BME280;19964;42.060;24.700;2023-03-16T08:12:41;96888.25;;;7.87;64.54
6094;BME280;19964;42.060;24.700;2023-03-16T08:15:08;96892.44;;;7.99;64.07
6094;BME280;19964;42.060;24.700;2023-03-16T08:17:36;96906.66;;;8.13;64.04
6094;BME280;19964;42.060;24.700;2023-03-16T08:20:08;96890.84;;;8.22;63.10
6094;BME280;19964;42.060;24.700;2023-03-16T08:22:37;96895.94;;;8.40;63.23
6094;BME280;19964;42.060;24.700;2023-03-16T08:25:05;96905.00;;;8.65;62.05
6094;BME280;19964;42.060;24.700;2023-03-16T08:27:34;96913.88;;;8.69;62.44
6094;BME280;19964;42.060;24.700;2023-03-16T08:30:02;96906.00;;;8.76;61.82
6094;BME280;19964;42.060;24.700;2023-03-16T08:32:30;96909.94;;;8.78;61.90
6094;BME280;19964;42.060;24.700;2023-03-16T08:34:57;96923.72;;;8.84;61.24
6094;BME280;19964;42.060;24.700;2023-03-16T08:37:26;96916.47;;;8.69;61.19
6094;BME280;19964;42.060;24.700;2023-03-16T08:39:53;96907.47;;;8.60;60.90
6094;BME280;19964;42.060;24.700;2023-03-16T08:42:20;96902.06;;;8.85;61.15
6094;BME280;19964;42.060;24.700;2023-03-16T08:44:46;96911.44;;;9.03;60.65
6094;BME280;19964;42.060;24.700;2023-03-16T08:47:13;96897.72;;;9.14;60.63
6094;BME280;19964;42.060;24.700;2023-03-16T08:49:41;96896.97;;;9.30;59.97
6094;BME280;19964;42.060;24.700;2023-03-16T08:52:09;96900.84;;;9.44;59.64
6094;BME280;19964;42.060;24.700;2023-03-16T08:54:38;96913.44;;;9.68;58.39
6094;BME280;19964;42.060;24.700;2023-03-16T08:57:06;96904.34;;;9.99;57.20
6094;BME280;19964;42.060;24.700;2023-03-16T08:59:33;96909.09;;;10.35;56.61
6094;BME280;19964;42.060;24.700;2023-03-16T09:02:00;96884.69;;;10.31;56.48
6094;BME280;19964;42.060;24.700;2023-03-16T09:04:28;96903.38;;;10.33;56.11
6094;BME280;19964;42.060;24.700;2023-03-16T09:06:55;96907.06;;;10.37;55.59
6094;BME280;19964;42.060;24.700;2023-03-16T09:09:22;96913.97;;;10.53;55.77
6094;BME280;19964;42.060;24.700;2023-03-16T09:11:51;96914.19;;;10.47;55.77
6094;BME280;19964;42.060;24.700;2023-03-16T09:14:17;96902.66;;;10.21;56.07
6094;BME280;19964;42.060;24.700;2023-03-16T09:16:44;96923.44;;;10.43;55.57
6094;BME280;19964;42.060;24.700;2023-03-16T09:19:11;96920.38;;;10.29;55.57
6094;BME280;19964;42.060;24.700;2023-03-16T09:21:38;96928.25;;;10.18;55.40
6094;BME280;19964;42.060;24.700;2023-03-16T09:24:05;96928.13;;;9.96;56.01
6094;BME280;19964;42.060;24.700;2023-03-16T09:26:33;96919.94;;;10.16;55.47
6094;BME280;19964;42.060;24.700;2023-03-16T09:29:02;96920.19;;;9.86;55.65
6094;BME280;19964;42.060;24.700;2023-03-16T09:31:31;96911.19;;;9.88;55.45
6094;BME280;19964;42.060;24.700;2023-03-16T09:33:58;96925.81;;;10.66;56.08
6094;BME280;19964;42.060;24.700;2023-03-16T09:36:25;96857.53;;;10.34;55.31
6094;BME280;19964;42.060;24.700;2023-03-16T09:38:52;96919.94;;;11.14;53.52
6094;BME280;19964;42.060;24.700;2023-03-16T09:41:30;96927.69;;;11.35;52.52
6094;BME280;19964;42.060;24.700;2023-03-16T09:44:10;96907.19;;;11.34;52.66
6094;BME280;19964;42.060;24.700;2023-03-16T09:46:43;96931.34;;;11.13;53.41
6094;BME280;19964;42.060;24.700;2023-03-16T09:49:16;96930.88;;;10.94;53.28
6094;BME280;19964;42.060;24.700;2023-03-16T09:51:47;96930.63;;;10.96;53.26
6094;BME280;19964;42.060;24.700;2023-03-16T09:54:23;96926.28;;;10.63;53.34
6094;BME280;19964;42.060;24.700;2023-03-16T09:56:53;96941.00;;;10.96;53.97
6094;BME280;19964;42.060;24.700;2023-03-16T09:59:23;96924.47;;;11.02;53.00
6094;BME280;19964;42.060;24.700;2023-03-16T10:02:13;96934.22;;;11.38;53.28
6094;BME280;19964;42.060;24.700;2023-03-16T10:04:54;96946.09;;;11.12;52.71
6094;BME280;19964;42.060;24.700;2023-03-16T10:07:30;96933.69;;;11.14;53.07
6094;BME280;19964;42.060;24.700;2023-03-16T10:10:05;96942.69;;;11.55;52.97
6094;BME280;19964;42.060;24.700;2023-03-16T10:12:44;96860.94;;;10.99;52.51
6094;BME280;19964;42.060;24.700;2023-03-16T10:15:16;96930.75;;;11.54;52.66
6094;BME280;19964;42.060;24.700;2023-03-16T10:17:47;96944.13;;;11.41;53.34
6094;BME280;19964;42.060;24.700;2023-03-16T10:20:19;96915.00;;;11.12;53.56
6094;BME280;19964;42.060;24.700;2023-03-16T10:22:48;96946.50;;;11.47;53.61
6094;BME280;19964;42.060;24.700;2023-03-16T10:25:20;96965.38;;;11.43;52.40
6094;BME280;19964;42.060;24.700;2023-03-16T10:27:48;96954.53;;;11.24;51.77
6094;BME280;19964;42.060;24.700;2023-03-16T10:30:23;96961.19;;;11.37;52.83
6094;BME280;19964;42.060;24.700;2023-03-16T10:32:52;96954.84;;;11.28;53.00
6094;BME280;19964;42.060;24.700;2023-03-16T10:35:28;96945.97;;;11.45;52.52
6094;BME280;19964;42.060;24.700;2023-03-16T10:37:56;96949.25;;;11.62;52.35
6094;BME280;19964;42.060;24.700;2023-03-16T10:40:23;96906.41;;;11.33;52.19
6094;BME280;19964;42.060;24.700;2023-03-16T10:42:51;96939.66;;;11.63;51.99
6094;BME280;19964;42.060;24.700;2023-03-16T10:45:23;96943.63;;;11.66;51.49
6094;BME280;19964;42.060;24.700;2023-03-16T10:47:53;96936.19;;;11.74;52.44
6094;BME280;19964;42.060;24.700;2023-03-16T10:50:24;96938.66;;;11.64;50.99
6094;BME280;19964;42.060;24.700;2023-03-16T10:52:54;96866.41;;;11.24;51.04
6094;BME280;19964;42.060;24.700;2023-03-16T10:55:24;96922.06;;;11.17;51.63
6094;BME280;19964;42.060;24.700;2023-03-16T10:57:53;96926.69;;;11.15;52.27
6094;BME280;19964;42.060;24.700;2023-03-16T11:00:27;96929.66;;;11.02;52.37
6094;BME280;19964;42.060;24.700;2023-03-16T11:02:57;96915.13;;;11.01;52.33
6094;BME280;19964;42.060;24.700;2023-03-16T11:05:27;96940.75;;;11.19;52.33
6094;BME280;19964;42.060;24.700;2023-03-16T11:07:58;96932.59;;;11.10;51.48
6094;BME280;19964;42.060;24.700;2023-03-16T11:10:29;96935.91;;;11.27;52.01
6094;BME280;19964;42.060;24.700;2023-03-16T11:13:01;96940.34;;;11.53;51.36
6094;BME280;19964;42.060;24.700;2023-03-16T11:15:36;96936.22;;;11.79;52.25
6094;BME280;19964;42.060;24.700;2023-03-16T11:18:04;96929.50;;;11.56;51.02
6094;BME280;19964;42.060;24.700;2023-03-16T11:20:34;96950.53;;;11.82;50.60
6094;BME280;19964;42.060;24.700;2023-03-16T11:23:01;96934.69;;;11.83;50.57
6094;BME280;19964;42.060;24.700;2023-03-16T11:25:32;96938.13;;;11.89;50.60
6094;BME280;19964;42.060;24.700;2023-03-16T11:28:07;96936.63;;;11.98;50.47
6094;BME280;19964;42.060;24.700;2023-03-16T11:30:40;96939.06;;;11.78;50.48
6094;BME280;19964;42.060;24.700;2023-03-16T11:33:09;96929.91;;;11.70;50.59
6094;BME280;19964;42.060;24.700;2023-03-16T11:35:44;96938.44;;;11.44;50.81
6094;BME280;19964;42.060;24.700;2023-03-16T11:38:15;96932.81;;;11.52;50.79
6094;BME280;19964;42.060;24.700;2023-03-16T11:40:52;96935.72;;;11.82;51.02
6094;BME280;19964;42.060;24.700;2023-03-16T11:43:48;96924.47;;;11.72;50.50
6094;BME280;19964;42.060;24.700;2023-03-16T11:46:21;96882.25;;;11.28;50.52
6094;BME280;19964;42.060;24.700;2023-03-16T11:49:00;96861.25;;;11.03;50.53
6094;BME280;19964;42.060;24.700;2023-03-16T11:51:41;96931.03;;;11.31;50.92
6094;BME280;19964;42.060;24.700;2023-03-16T11:54:25;96940.34;;;11.53;51.01
6094;BME280;19964;42.060;24.700;2023-03-16T11:56:58;96921.84;;;11.45;50.93
6094;BME280;19964;42.060;24.700;2023-03-16T11:59:45;96941.22;;;11.86;50.41
6094;BME280;19964;42.060;24.700;2023-03-16T12:05:36;96947.28;;;11.70;50.11
6094;BME280;19964;42.060;24.700;2023-03-16T12:08:23;96942.34;;;11.46;52.00
6094;BME280;19964;42.060;24.700;2023-03-16T12:10:54;96932.94;;;10.75;51.28
6094;BME280;19964;42.060;24.700;2023-03-16T12:13:34;96954.41;;;10.93;51.40
6094;BME280;19964;42.060;24.700;2023-03-16T12:16:09;96941.84;;;11.01;52.15
6094;BME280;19964;42.060;24.700;2023-03-16T12:18:43;96888.13;;;10.75;51.36
6094;BME280;19964;42.060;24.700;2023-03-16T12:21:14;96950.50;;;11.12;50.76
6094;BME280;19964;42.060;24.700;2023-03-16T12:23:49;96871.91;;;10.63;50.49
6094;BME280;19964;42.060;24.700;2023-03-16T12:26:17;96897.47;;;10.38;50.76
6094;BME280;19964;42.060;24.700;2023-03-16T12:28:45;96951.63;;;10.77;50.80
6094;BME280;19964;42.060;24.700;2023-03-16T12:31:15;96964.47;;;10.89;51.23
6094;BME280;19964;42.060;24.700;2023-03-16T12:33:55;96966.69;;;11.19;51.50
6094;BME280;19964;42.060;24.700;2023-03-16T12:39:45;96973.44;;;10.82;51.83
6094;BME280;19964;42.060;24.700;2023-03-16T12:42:37;96967.34;;;10.71;52.13
6094;BME280;19964;42.060;24.700;2023-03-16T12:45:12;96974.88;;;10.72;52.36
6094;BME280;19964;42.060;24.700;2023-03-16T12:47:48;96982.09;;;10.70;52.82
6094;BME280;19964;42.060;24.700;2023-03-16T12:50:19;96901.16;;;9.92;53.06
6094;BME280;19964;42.060;24.700;2023-03-16T12:52:49;96982.75;;;10.61;52.75
6094;BME280;19964;42.060;24.700;2023-03-16T12:55:18;96984.38;;;10.34;53.41
6094;BME280;19964;42.060;24.700;2023-03-16T12:57:47;96972.06;;;10.24;53.18
6094;BME280;19964;42.060;24.700;2023-03-16T13:00:16;96987.56;;;10.08;53.49
6094;BME280;19964;42.060;24.700;2023-03-16T13:02:48;96995.34;;;10.08;53.37
6094;BME280;19964;42.060;24.700;2023-03-16T13:05:29;96998.22;;;9.95;53.77
6094;BME280;19964;42.060;24.700;2023-03-16T13:08:09;96985.88;;;9.85;54.12
6094;BME280;19964;42.060;24.700;2023-03-16T13:10:38;96996.56;;;9.88;53.60
6094;BME280;19964;42.060;24.700;2023-03-16T13:13:09;96964.97;;;9.58;54.14
6094;BME280;19964;42.060;24.700;2023-03-16T13:15:37;97003.78;;;9.86;54.23
6094;BME280;19964;42.060;24.700;2023-03-16T13:18:20;97005.97;;;9.95;53.95
6094;BME280;19964;42.060;24.700;2023-03-16T13:20:57;97011.28;;;9.88;54.53
6094;BME280;19964;42.060;24.700;2023-03-16T13:23:27;97016.28;;;9.78;53.66
6094;BME280;19964;42.060;24.700;2023-03-16T13:26:00;97021.53;;;9.83;53.84
6094;BME280;19964;42.060;24.700;2023-03-16T13:28:30;97010.66;;;9.81;53.68
6094;BME280;19964;42.060;24.700;2023-03-16T13:30:59;97025.94;;;9.82;53.42
6094;BME280;19964;42.060;24.700;2023-03-16T13:33:29;97014.06;;;9.70;54.02
6094;BME280;19964;42.060;24.700;2023-03-16T13:35:59;97026.69;;;9.83;53.36
6094;BME280;19964;42.060;24.700;2023-03-16T13:38:27;97035.72;;;9.80;53.49
6094;BME280;19964;42.060;24.700;2023-03-16T13:40:57;97040.16;;;9.68;53.79
6094;BME280;19964;42.060;24.700;2023-03-16T13:43:29;97039.63;;;9.55;53.74
6094;BME280;19964;42.060;24.700;2023-03-16T13:45:57;97044.47;;;9.51;53.84
6094;BME280;19964;42.060;24.700;2023-03-16T13:48:25;97051.53;;;9.56;54.28
6094;BME280;19964;42.060;24.700;2023-03-16T13:50:53;97052.31;;;9.56;54.09
6094;BME280;19964;42.060;24.700;2023-03-16T13:53:24;97056.94;;;9.54;54.64
6094;BME280;19964;42.060;24.700;2023-03-16T13:55:54;97054.72;;;9.46;54.41
6094;BME280;19964;42.060;24.700;2023-03-16T13:58:25;97051.84;;;9.20;55.44
6094;BME280;19964;42.060;24.700;2023-03-16T14:00:56;97037.34;;;9.30;54.98